• Join FlightAware (Why Join?)
  • Login
  • US Flag 
05:02AM EST


 

Airport Tracker/Info


-or-


 

Live Flight TrackerFlight Track Log ✈ AAR8739 ✈ 15-Sep-2013 ✈ RKSS / GMP - RKJY / RSU

Flight Track Log - Related Links

Times and Time Zones

All times are in EDT time to prevent confusion due to time zone crossing. See the AAR8739 flight status page for this flight to view local times or setup timezone preferences in your user account.

Time Position Orientation Groundspeed Altitude Reporting Facility
EDT Latitude Longitude Course Direction KTS MPH feet Rate Location/Type
10:42PM 37.3315 126.8617 166° South  Level Estimated
10:43PM 37.2559 126.8853 166° South  Level Estimated
10:44PM 37.1803 126.9089 166° South  Level Estimated
10:45PM 37.1046 126.9324 166° South  Level Estimated
10:46PM 37.0290 126.9559 166° South  Level Estimated
10:47PM 36.9534 126.9793 166° South  Level Estimated
10:48PM 36.8778 127.0027 166° South  Level Estimated
10:49PM 36.8021 127.0260 166° South  Level Estimated
10:50PM 36.7265 127.0493 166° South  Level Estimated
10:51PM 36.6508 127.0725 166° South  Level Estimated
10:52PM 36.5752 127.0957 166° South  Level Estimated
10:53PM 36.4995 127.1189 166° South  Level Estimated
10:54PM 36.4239 127.1420 166° South  Level Estimated
10:55PM 36.3482 127.1650 166° South  Level Estimated
10:56PM 36.2725 127.1880 166° South  Level Estimated
10:57PM 36.1968 127.2110 166° South  Level Estimated
10:58PM 36.1212 127.2339 166° South  Level Estimated
10:59PM 36.0455 127.2568 166° South  Level Estimated
11:00PM 35.9698 127.2796 166° South  Level Estimated
11:01PM 35.8941 127.3024 166° South  Level Estimated
11:02PM 35.8184 127.3252 166° South  Level Estimated
11:03PM 35.7427 127.3479 166° South  Level Estimated
11:04PM 35.6670 127.3706 166° South  Level Estimated
11:05PM 35.5913 127.3932 166° South  Level Estimated
11:06PM 35.5156 127.4157 166° South  Level Estimated
11:07PM 35.4398 127.4383 166° South  Level Estimated
11:08PM 35.3641 127.4608 166° South  Level Estimated
11:09PM 35.2884 127.4832 166° South  Level Estimated
11:10PM 35.2127 127.5056 166° South  Level Estimated
11:11PM 35.1369 127.5280 166° South  Level Estimated
11:12PM 35.0612 127.5503 166° South  Level Estimated
11:13PM 34.9854 127.5726 166° South  Level Estimated
11:14PM 34.9097 127.5948 166° South  Level Estimated
11:15PM 34.8398 127.6153 166° South  Level Estimated
11:16PM 34.8398 127.6153 180° South  Level Estimated
11:17PM 34.8398 127.6153 180° South  Level Estimated
11:18PM 34.8398 127.6153 180° South  Level Estimated
11:19PM 34.8398 127.6153 180° South  Level Estimated
11:20PM 34.8398 127.6153 180° South  Level Estimated
11:21PM 34.8398 127.6153 180° South  Level Estimated
11:22PM 34.8398 127.6153 180° South  Level Estimated
11:23PM 34.8398 127.6153 180° South  Level Estimated
11:24PM 34.8398 127.6153 180° South  Level Estimated